sensor_id;sensor_type;location;lat;lon;timestamp;pressure;altitude;pressure_sealevel;temperature;humidity
43298;BME280;28892;55.640;37.532;2024-02-26T00:02:02;99793.50;;;-0.78;51.10
43298;BME280;28892;55.640;37.532;2024-02-26T00:04:27;99788.22;;;-1.06;51.44
43298;BME280;28892;55.640;37.532;2024-02-26T00:06:53;99786.44;;;-1.20;52.16
43298;BME280;28892;55.640;37.532;2024-02-26T00:09:19;99785.31;;;-1.01;52.03
43298;BME280;28892;55.640;37.532;2024-02-26T00:11:46;99790.25;;;-0.96;51.07
43298;BME280;28892;55.640;37.532;2024-02-26T00:14:11;99775.53;;;-0.83;50.92
43298;BME280;28892;55.640;37.532;2024-02-26T00:16:39;99784.25;;;-0.69;50.99
43298;BME280;28892;55.640;37.532;2024-02-26T00:19:05;99771.47;;;-1.16;51.39
43298;BME280;28892;55.640;37.532;2024-02-26T00:21:30;99783.81;;;-0.76;51.02
43298;BME280;28892;55.640;37.532;2024-02-26T00:23:56;99770.16;;;-0.94;51.31
43298;BME280;28892;55.640;37.532;2024-02-26T00:26:21;99775.78;;;-0.73;51.16
43298;BME280;28892;55.640;37.532;2024-02-26T00:28:47;99778.72;;;-0.92;51.00
43298;BME280;28892;55.640;37.532;2024-02-26T00:31:12;99764.09;;;-0.95;51.20
43298;BME280;28892;55.640;37.532;2024-02-26T00:33:38;99773.25;;;-1.02;51.75
43298;BME280;28892;55.640;37.532;2024-02-26T00:36:03;99761.81;;;-0.58;51.10
43298;BME280;28892;55.640;37.532;2024-02-26T00:38:29;99766.31;;;-0.74;51.12
43298;BME280;28892;55.640;37.532;2024-02-26T00:40:56;99754.66;;;-0.68;50.80
43298;BME280;28892;55.640;37.532;2024-02-26T00:43:21;99755.72;;;-1.15;51.51
43298;BME280;28892;55.640;37.532;2024-02-26T00:45:47;99754.72;;;-1.27;51.62
43298;BME280;28892;55.640;37.532;2024-02-26T00:48:12;99767.91;;;-0.72;50.59
43298;BME280;28892;55.640;37.532;2024-02-26T00:50:39;99759.75;;;-0.94;50.75
43298;BME280;28892;55.640;37.532;2024-02-26T00:53:05;99752.50;;;-1.18;51.41
43298;BME280;28892;55.640;37.532;2024-02-26T00:55:30;99767.44;;;-0.93;51.05
43298;BME280;28892;55.640;37.532;2024-02-26T00:57:56;99760.59;;;-1.08;51.00
43298;BME280;28892;55.640;37.532;2024-02-26T01:00:21;99762.41;;;-0.81;50.77
43298;BME280;28892;55.640;37.532;2024-02-26T01:02:47;99758.41;;;-0.87;51.11
43298;BME280;28892;55.640;37.532;2024-02-26T01:05:13;99764.66;;;-1.19;50.94
43298;BME280;28892;55.640;37.532;2024-02-26T01:07:38;99756.41;;;-1.25;51.61
43298;BME280;28892;55.640;37.532;2024-02-26T01:10:05;99751.91;;;-1.09;51.28
43298;BME280;28892;55.640;37.532;2024-02-26T01:12:32;99757.59;;;-1.31;51.29
43298;BME280;28892;55.640;37.532;2024-02-26T01:14:57;99763.72;;;-1.47;51.44
43298;BME280;28892;55.640;37.532;2024-02-26T01:17:23;99769.97;;;-1.35;51.67
43298;BME280;28892;55.640;37.532;2024-02-26T01:19:48;99759.44;;;-1.62;52.04
43298;BME280;28892;55.640;37.532;2024-02-26T01:22:15;99769.78;;;-1.46;51.61
43298;BME280;28892;55.640;37.532;2024-02-26T01:25:03;99763.63;;;-1.60;51.81
43298;BME280;28892;55.640;37.532;2024-02-26T01:27:29;99746.16;;;-1.43;52.00
43298;BME280;28892;55.640;37.532;2024-02-26T01:29:54;99753.22;;;-1.02;51.05
43298;BME280;28892;55.640;37.532;2024-02-26T01:32:20;99743.00;;;-1.19;50.71
43298;BME280;28892;55.640;37.532;2024-02-26T01:34:46;99745.91;;;-1.24;51.05
43298;BME280;28892;55.640;37.532;2024-02-26T01:37:11;99757.34;;;-0.97;50.66
43298;BME280;28892;55.640;37.532;2024-02-26T01:39:36;99748.03;;;-1.02;50.43
43298;BME280;28892;55.640;37.532;2024-02-26T01:42:02;99750.84;;;-0.63;50.02
43298;BME280;28892;55.640;37.532;2024-02-26T01:44:28;99750.88;;;-0.77;50.27
43298;BME280;28892;55.640;37.532;2024-02-26T01:46:53;99752.69;;;-1.36;51.25
43298;BME280;28892;55.640;37.532;2024-02-26T01:49:19;99750.00;;;-1.20;51.05
43298;BME280;28892;55.640;37.532;2024-02-26T01:51:45;99747.47;;;-1.21;51.15
43298;BME280;28892;55.640;37.532;2024-02-26T01:54:11;99749.88;;;-1.04;51.07
43298;BME280;28892;55.640;37.532;2024-02-26T01:56:37;99734.25;;;-1.04;50.32
43298;BME280;28892;55.640;37.532;2024-02-26T01:59:04;99747.38;;;-1.20;51.04
43298;BME280;28892;55.640;37.532;2024-02-26T02:01:32;99742.53;;;-0.97;50.52
43298;BME280;28892;55.640;37.532;2024-02-26T02:03:59;99734.81;;;-1.13;50.56
43298;BME280;28892;55.640;37.532;2024-02-26T02:06:25;99735.84;;;-1.01;50.05
43298;BME280;28892;55.640;37.532;2024-02-26T02:08:52;99743.31;;;-1.24;50.53
43298;BME280;28892;55.640;37.532;2024-02-26T02:11:17;99751.28;;;-1.13;51.00
43298;BME280;28892;55.640;37.532;2024-02-26T02:13:44;99756.22;;;-1.08;50.20
43298;BME280;28892;55.640;37.532;2024-02-26T02:16:09;99749.31;;;-1.23;50.48
43298;BME280;28892;55.640;37.532;2024-02-26T02:18:35;99745.13;;;-1.26;50.27
43298;BME280;28892;55.640;37.532;2024-02-26T02:21:01;99739.31;;;-1.30;50.58
43298;BME280;28892;55.640;37.532;2024-02-26T02:23:26;99746.91;;;-1.56;51.12
43298;BME280;28892;55.640;37.532;2024-02-26T02:25:52;99732.41;;;-1.45;51.00
43298;BME280;28892;55.640;37.532;2024-02-26T02:28:18;99741.69;;;-1.41;51.05
43298;BME280;28892;55.640;37.532;2024-02-26T02:30:44;99726.06;;;-1.56;50.76
43298;BME280;28892;55.640;37.532;2024-02-26T02:33:09;99749.66;;;-1.73;51.25
43298;BME280;28892;55.640;37.532;2024-02-26T02:35:36;99736.38;;;-1.69;51.44
43298;BME280;28892;55.640;37.532;2024-02-26T02:38:02;99731.56;;;-1.60;51.36
43298;BME280;28892;55.640;37.532;2024-02-26T02:40:28;99736.13;;;-1.49;51.30
43298;BME280;28892;55.640;37.532;2024-02-26T02:42:54;99738.00;;;-1.37;50.90
43298;BME280;28892;55.640;37.532;2024-02-26T02:45:20;99735.56;;;-1.25;50.29
43298;BME280;28892;55.640;37.532;2024-02-26T02:47:45;99727.84;;;-1.27;50.44
43298;BME280;28892;55.640;37.532;2024-02-26T02:50:11;99729.53;;;-1.55;50.91
43298;BME280;28892;55.640;37.532;2024-02-26T02:52:36;99728.13;;;-1.32;50.67
43298;BME280;28892;55.640;37.532;2024-02-26T02:55:02;99728.13;;;-1.46;50.88
43298;BME280;28892;55.640;37.532;2024-02-26T02:57:28;99736.00;;;-1.77;51.36
43298;BME280;28892;55.640;37.532;2024-02-26T02:59:54;99738.81;;;-1.36;51.68
43298;BME280;28892;55.640;37.532;2024-02-26T03:02:19;99724.78;;;-1.34;50.65
43298;BME280;28892;55.640;37.532;2024-02-26T03:04:45;99724.91;;;-1.35;50.41
43298;BME280;28892;55.640;37.532;2024-02-26T03:07:12;99741.31;;;-1.20;50.45
43298;BME280;28892;55.640;37.532;2024-02-26T03:09:38;99718.75;;;-1.49;50.91
43298;BME280;28892;55.640;37.532;2024-02-26T03:12:04;99718.66;;;-1.62;51.43
43298;BME280;28892;55.640;37.532;2024-02-26T03:14:29;99718.00;;;-1.65;50.85
43298;BME280;28892;55.640;37.532;2024-02-26T03:16:55;99707.22;;;-1.30;50.87
43298;BME280;28892;55.640;37.532;2024-02-26T03:19:20;99728.13;;;-1.46;50.47
43298;BME280;28892;55.640;37.532;2024-02-26T03:21:46;99720.22;;;-1.74;51.48
43298;BME280;28892;55.640;37.532;2024-02-26T03:24:12;99733.19;;;-1.88;52.00
43298;BME280;28892;55.640;37.532;2024-02-26T03:26:38;99723.19;;;-1.65;51.85
43298;BME280;28892;55.640;37.532;2024-02-26T03:29:04;99695.97;;;-1.60;51.60
43298;BME280;28892;55.640;37.532;2024-02-26T03:31:30;99713.69;;;-1.81;52.26
43298;BME280;28892;55.640;37.532;2024-02-26T03:33:56;99722.53;;;-1.69;51.74
43298;BME280;28892;55.640;37.532;2024-02-26T03:36:21;99723.81;;;-1.91;51.89
43298;BME280;28892;55.640;37.532;2024-02-26T03:38:50;99718.28;;;-1.70;51.57
43298;BME280;28892;55.640;37.532;2024-02-26T03:41:15;99708.44;;;-2.10;52.32
43298;BME280;28892;55.640;37.532;2024-02-26T03:43:41;99720.75;;;-1.69;52.05
43298;BME280;28892;55.640;37.532;2024-02-26T03:46:07;99706.47;;;-1.76;51.95
43298;BME280;28892;55.640;37.532;2024-02-26T03:48:32;99724.56;;;-1.74;52.42
43298;BME280;28892;55.640;37.532;2024-02-26T03:50:58;99717.41;;;-1.71;51.89
43298;BME280;28892;55.640;37.532;2024-02-26T03:53:23;99713.06;;;-1.70;52.23
43298;BME280;28892;55.640;37.532;2024-02-26T03:55:50;99713.16;;;-1.72;52.06
43298;BME280;28892;55.640;37.532;2024-02-26T03:58:17;99718.00;;;-1.96;52.17
43298;BME280;28892;55.640;37.532;2024-02-26T04:00:43;99727.41;;;-1.93;52.78
43298;BME280;28892;55.640;37.532;2024-02-26T04:03:09;99706.19;;;-1.71;52.34
43298;BME280;28892;55.640;37.532;2024-02-26T04:05:37;99724.16;;;-1.97;52.39
43298;BME280;28892;55.640;37.532;2024-02-26T04:08:03;99714.03;;;-2.32;53.70
43298;BME280;28892;55.640;37.532;2024-02-26T04:10:33;99725.56;;;-1.91;53.37
43298;BME280;28892;55.640;37.532;2024-02-26T04:13:00;99705.66;;;-2.07;53.17
43298;BME280;28892;55.640;37.532;2024-02-26T04:15:27;99728.22;;;-1.62;52.73
43298;BME280;28892;55.640;37.532;2024-02-26T04:17:53;99720.22;;;-1.16;51.36
43298;BME280;28892;55.640;37.532;2024-02-26T04:20:20;99717.22;;;-0.95;50.80
43298;BME280;28892;55.640;37.532;2024-02-26T04:22:47;99723.50;;;-1.27;51.16
43298;BME280;28892;55.640;37.532;2024-02-26T04:25:12;99722.66;;;-1.13;51.29
43298;BME280;28892;55.640;37.532;2024-02-26T04:27:38;99730.16;;;-0.93;50.93
43298;BME280;28892;55.640;37.532;2024-02-26T04:30:05;99714.06;;;-1.15;51.43
43298;BME280;28892;55.640;37.532;2024-02-26T04:32:31;99723.09;;;-1.20;51.64
43298;BME280;28892;55.640;37.532;2024-02-26T04:34:56;99708.91;;;-1.29;51.50
43298;BME280;28892;55.640;37.532;2024-02-26T04:37:23;99726.19;;;-1.28;51.58
43298;BME280;28892;55.640;37.532;2024-02-26T04:39:49;99727.84;;;-2.01;53.26
43298;BME280;28892;55.640;37.532;2024-02-26T04:42:14;99715.28;;;-2.40;54.23
43298;BME280;28892;55.640;37.532;2024-02-26T04:44:41;99737.38;;;-2.16;54.26
43298;BME280;28892;55.640;37.532;2024-02-26T04:47:06;99727.16;;;-1.74;53.76
43298;BME280;28892;55.640;37.532;2024-02-26T04:49:33;99719.59;;;-1.34;52.45
43298;BME280;28892;55.640;37.532;2024-02-26T04:51:59;99728.94;;;-1.75;53.22
43298;BME280;28892;55.640;37.532;2024-02-26T04:54:25;99722.53;;;-1.69;53.00
43298;BME280;28892;55.640;37.532;2024-02-26T04:56:51;99718.81;;;-1.65;53.31
43298;BME280;28892;55.640;37.532;2024-02-26T04:59:18;99728.88;;;-1.59;53.24
43298;BME280;28892;55.640;37.532;2024-02-26T05:01:44;99725.50;;;-2.20;54.50
43298;BME280;28892;55.640;37.532;2024-02-26T05:04:11;99712.38;;;-1.88;54.22
43298;BME280;28892;55.640;37.532;2024-02-26T05:06:38;99720.34;;;-1.91;54.07
43298;BME280;28892;55.640;37.532;2024-02-26T05:09:05;99713.38;;;-2.05;54.41
43298;BME280;28892;55.640;37.532;2024-02-26T05:11:30;99711.97;;;-2.11;54.88
43298;BME280;28892;55.640;37.532;2024-02-26T05:13:57;99726.22;;;-1.88;54.69
43298;BME280;28892;55.640;37.532;2024-02-26T05:16:25;99723.00;;;-1.62;54.11
43298;BME280;28892;55.640;37.532;2024-02-26T05:18:52;99708.69;;;-1.84;53.93
43298;BME280;28892;55.640;37.532;2024-02-26T05:21:18;99703.06;;;-1.92;54.64
43298;BME280;28892;55.640;37.532;2024-02-26T05:23:44;99715.63;;;-2.30;55.17
43298;BME280;28892;55.640;37.532;2024-02-26T05:26:11;99726.31;;;-1.89;54.86
43298;BME280;28892;55.640;37.532;2024-02-26T05:28:36;99716.91;;;-2.22;55.29
43298;BME280;28892;55.640;37.532;2024-02-26T05:31:04;99721.41;;;-2.41;55.76
43298;BME280;28892;55.640;37.532;2024-02-26T05:33:30;99716.31;;;-2.12;55.34
43298;BME280;28892;55.640;37.532;2024-02-26T05:35:56;99708.59;;;-2.13;55.58
43298;BME280;28892;55.640;37.532;2024-02-26T05:38:22;99700.94;;;-2.31;55.50
43298;BME280;28892;55.640;37.532;2024-02-26T05:40:47;99709.16;;;-2.39;56.15
43298;BME280;28892;55.640;37.532;2024-02-26T05:43:16;99711.97;;;-2.11;55.62
43298;BME280;28892;55.640;37.532;2024-02-26T05:45:42;99721.34;;;-2.08;55.39
43298;BME280;28892;55.640;37.532;2024-02-26T05:48:11;99710.88;;;-1.92;55.32
43298;BME280;28892;55.640;37.532;2024-02-26T05:50:38;99711.41;;;-1.71;54.94
43298;BME280;28892;55.640;37.532;2024-02-26T05:53:07;99717.41;;;-1.85;54.84
43298;BME280;28892;55.640;37.532;2024-02-26T05:55:33;99718.28;;;-2.31;55.83
43298;BME280;28892;55.640;37.532;2024-02-26T05:58:02;99727.06;;;-2.18;55.94
43298;BME280;28892;55.640;37.532;2024-02-26T06:00:28;99726.81;;;-1.68;55.33
43298;BME280;28892;55.640;37.532;2024-02-26T06:02:58;99702.63;;;-1.85;55.20
43298;BME280;28892;55.640;37.532;2024-02-26T06:05:25;99730.69;;;-2.20;56.23
43298;BME280;28892;55.640;37.532;2024-02-26T06:07:53;99714.72;;;-1.84;55.88
43298;BME280;28892;55.640;37.532;2024-02-26T06:10:22;99713.28;;;-2.04;55.41
43298;BME280;28892;55.640;37.532;2024-02-26T06:13:00;99729.81;;;-2.51;57.02
43298;BME280;28892;55.640;37.532;2024-02-26T06:18:36;99719.94;;;-1.84;55.60
43298;BME280;28892;55.640;37.532;2024-02-26T06:21:02;99729.16;;;-1.63;55.66
43298;BME280;28892;55.640;37.532;2024-02-26T06:23:28;99689.06;;;-1.90;55.70
43298;BME280;28892;55.640;37.532;2024-02-26T06:25:54;99721.34;;;-2.08;56.50
43298;BME280;28892;55.640;37.532;2024-02-26T06:28:21;99715.13;;;-2.06;56.45
43298;BME280;28892;55.640;37.532;2024-02-26T06:30:46;99711.72;;;-1.92;55.50
43298;BME280;28892;55.640;37.532;2024-02-26T06:33:13;99713.06;;;-2.15;56.09
43298;BME280;28892;55.640;37.532;2024-02-26T06:35:42;99718.78;;;-1.94;56.08
43298;BME280;28892;55.640;37.532;2024-02-26T06:38:10;99728.69;;;-2.31;56.72
43298;BME280;28892;55.640;37.532;2024-02-26T06:40:50;99718.63;;;-2.21;56.85
43298;BME280;28892;55.640;37.532;2024-02-26T06:43:42;99734.81;;;-2.32;57.43
43298;BME280;28892;55.640;37.532;2024-02-26T06:46:07;99736.63;;;-2.18;57.08
43298;BME280;28892;55.640;37.532;2024-02-26T06:48:34;99720.09;;;-2.17;57.00
43298;BME280;28892;55.640;37.532;2024-02-26T06:51:02;99750.34;;;-2.47;57.31
43298;BME280;28892;55.640;37.532;2024-02-26T06:53:29;99733.94;;;-1.86;56.62
43298;BME280;28892;55.640;37.532;2024-02-26T06:55:54;99738.03;;;-2.43;57.61
43298;BME280;28892;55.640;37.532;2024-02-26T06:58:21;99728.91;;;-2.20;57.72
43298;BME280;28892;55.640;37.532;2024-02-26T07:00:47;99719.13;;;-2.31;57.41
43298;BME280;28892;55.640;37.532;2024-02-26T07:03:14;99714.94;;;-2.03;56.82
43298;BME280;28892;55.640;37.532;2024-02-26T07:05:41;99722.06;;;-1.76;56.22
43298;BME280;28892;55.640;37.532;2024-02-26T07:08:12;99714.88;;;-2.32;57.28
43298;BME280;28892;55.640;37.532;2024-02-26T07:10:38;99718.91;;;-2.42;57.80
43298;BME280;28892;55.640;37.532;2024-02-26T07:13:05;99705.22;;;-1.85;57.19
43298;BME280;28892;55.640;37.532;2024-02-26T07:15:31;99706.13;;;-1.55;56.35
43298;BME280;28892;55.640;37.532;2024-02-26T07:18:06;99704.41;;;-1.71;56.72
43298;BME280;28892;55.640;37.532;2024-02-26T07:20:34;99708.06;;;-1.73;56.62
43298;BME280;28892;55.640;37.532;2024-02-26T07:22:59;99712.97;;;-1.69;56.37
43298;BME280;28892;55.640;37.532;2024-02-26T07:25:28;99703.41;;;-2.13;57.49
43298;BME280;28892;55.640;37.532;2024-02-26T07:27:56;99711.00;;;-2.41;58.49
43298;BME280;28892;55.640;37.532;2024-02-26T07:30:22;99705.53;;;-1.89;57.85
43298;BME280;28892;55.640;37.532;2024-02-26T07:32:49;99693.06;;;-1.70;57.00
43298;BME280;28892;55.640;37.532;2024-02-26T07:35:15;99697.25;;;-1.52;56.97
43298;BME280;28892;55.640;37.532;2024-02-26T07:37:47;99720.00;;;-0.83;55.72
43298;BME280;28892;55.640;37.532;2024-02-26T07:40:14;99712.38;;;-0.87;54.63
43298;BME280;28892;55.640;37.532;2024-02-26T07:42:41;99708.16;;;-1.46;55.62
43298;BME280;28892;55.640;37.532;2024-02-26T07:45:07;99709.47;;;-0.82;55.59
43298;BME280;28892;55.640;37.532;2024-02-26T07:47:34;99722.31;;;-0.79;55.32
43298;BME280;28892;55.640;37.532;2024-02-26T07:50:01;99721.34;;;-0.63;54.51
43298;BME280;28892;55.640;37.532;2024-02-26T07:52:28;99712.97;;;-0.68;54.43
43298;BME280;28892;55.640;37.532;2024-02-26T07:54:54;99717.75;;;-0.75;54.14
43298;BME280;28892;55.640;37.532;2024-02-26T07:57:20;99727.22;;;-0.32;53.83
43298;BME280;28892;55.640;37.532;2024-02-26T07:59:46;99719.63;;;-0.50;53.08
43298;BME280;28892;55.640;37.532;2024-02-26T08:02:15;99725.69;;;-0.09;53.63
43298;BME280;28892;55.640;37.532;2024-02-26T08:04:44;99728.25;;;-0.22;52.83
43298;BME280;28892;55.640;37.532;2024-02-26T08:07:11;99731.16;;;0.01;52.88
43298;BME280;28892;55.640;37.532;2024-02-26T08:09:37;99712.84;;;-0.52;53.34
43298;BME280;28892;55.640;37.532;2024-02-26T08:12:06;99725.94;;;0.01;52.95
43298;BME280;28892;55.640;37.532;2024-02-26T08:14:31;99730.72;;;-0.33;52.68
43298;BME280;28892;55.640;37.532;2024-02-26T08:16:58;99721.72;;;-0.15;53.36
43298;BME280;28892;55.640;37.532;2024-02-26T08:19:26;99707.47;;;-0.64;54.17
43298;BME280;28892;55.640;37.532;2024-02-26T08:21:52;99709.34;;;-0.66;54.00
43298;BME280;28892;55.640;37.532;2024-02-26T08:24:18;99711.59;;;-0.74;54.39
43298;BME280;28892;55.640;37.532;2024-02-26T08:26:46;99690.41;;;-0.82;54.33
43298;BME280;28892;55.640;37.532;2024-02-26T08:29:12;99708.91;;;-1.29;55.28
43298;BME280;28892;55.640;37.532;2024-02-26T08:31:40;99734.47;;;-1.07;55.40
43298;BME280;28892;55.640;37.532;2024-02-26T08:34:06;99716.31;;;-0.66;55.37
43298;BME280;28892;55.640;37.532;2024-02-26T08:36:34;99710.19;;;-1.07;55.49
43298;BME280;28892;55.640;37.532;2024-02-26T08:39:02;99679.91;;;-0.81;55.10
43298;BME280;28892;55.640;37.532;2024-02-26T08:41:31;99704.56;;;-0.87;54.63
43298;BME280;28892;55.640;37.532;2024-02-26T08:43:57;99688.59;;;-0.67;54.46
43298;BME280;28892;55.640;37.532;2024-02-26T08:46:25;99678.88;;;-0.10;53.37
43298;BME280;28892;55.640;37.532;2024-02-26T08:48:51;99684.19;;;0.01;52.93
43298;BME280;28892;55.640;37.532;2024-02-26T08:51:18;99677.94;;;0.55;52.26
43298;BME280;28892;55.640;37.532;2024-02-26T08:53:45;99689.84;;;0.34;51.75
43298;BME280;28892;55.640;37.532;2024-02-26T08:56:13;99698.16;;;-0.13;53.02
43298;BME280;28892;55.640;37.532;2024-02-26T08:58:42;99687.34;;;0.19;52.46
43298;BME280;28892;55.640;37.532;2024-02-26T09:01:10;99675.34;;;0.17;52.11
43298;BME280;28892;55.640;37.532;2024-02-26T09:03:36;99673.75;;;0.14;52.46
43298;BME280;28892;55.640;37.532;2024-02-26T09:06:03;99680.97;;;0.49;51.71
43298;BME280;28892;55.640;37.532;2024-02-26T09:08:29;99669.47;;;0.52;51.34
43298;BME280;28892;55.640;37.532;2024-02-26T09:10:55;99664.78;;;0.31;51.95
43298;BME280;28892;55.640;37.532;2024-02-26T09:13:21;99675.53;;;0.13;52.17
43298;BME280;28892;55.640;37.532;2024-02-26T09:15:48;99677.63;;;0.47;52.16
43298;BME280;28892;55.640;37.532;2024-02-26T09:18:16;99698.81;;;0.43;52.25
43298;BME280;28892;55.640;37.532;2024-02-26T09:20:43;99684.09;;;1.05;50.98
43298;BME280;28892;55.640;37.532;2024-02-26T09:23:09;99684.09;;;0.67;51.15
43298;BME280;28892;55.640;37.532;2024-02-26T09:25:37;99691.28;;;0.51;50.95
43298;BME280;28892;55.640;37.532;2024-02-26T09:28:03;99661.94;;;0.73;51.40
43298;BME280;28892;55.640;37.532;2024-02-26T09:30:31;99693.25;;;0.08;53.06
43298;BME280;28892;55.640;37.532;2024-02-26T09:33:04;99674.81;;;0.11;52.79
43298;BME280;28892;55.640;37.532;2024-02-26T09:35:31;99666.25;;;0.09;52.73
43298;BME280;28892;55.640;37.532;2024-02-26T09:37:58;99667.59;;;0.28;52.87
43298;BME280;28892;55.640;37.532;2024-02-26T09:40:26;99668.25;;;0.06;52.77
43298;BME280;28892;55.640;37.532;2024-02-26T09:42:59;99656.22;;;0.42;51.83
43298;BME280;28892;55.640;37.532;2024-02-26T09:45:26;99674.72;;;0.26;52.29
43298;BME280;28892;55.640;37.532;2024-02-26T09:47:55;99677.41;;;0.24;52.48
43298;BME280;28892;55.640;37.532;2024-02-26T09:50:21;99681.78;;;-0.02;53.09
43298;BME280;28892;55.640;37.532;2024-02-26T09:52:57;99685.97;;;0.52;51.57
43298;BME280;28892;55.640;37.532;2024-02-26T09:55:31;99650.38;;;0.25;52.06
43298;BME280;28892;55.640;37.532;2024-02-26T09:57:58;99657.28;;;0.13;53.09
43298;BME280;28892;55.640;37.532;2024-02-26T10:00:35;99690.16;;;0.29;52.51
43298;BME280;28892;55.640;37.532;2024-02-26T10:03:03;99680.44;;;0.57;52.28
43298;BME280;28892;55.640;37.532;2024-02-26T10:05:37;99676.09;;;1.68;50.73
43298;BME280;28892;55.640;37.532;2024-02-26T10:08:14;99676.94;;;2.27;49.04
43298;BME280;28892;55.640;37.532;2024-02-26T10:10:41;99677.44;;;2.55;48.59
43298;BME280;28892;55.640;37.532;2024-02-26T10:13:16;99686.59;;;2.95;47.92
43298;BME280;28892;55.640;37.532;2024-02-26T10:16:10;99677.69;;;2.52;47.27
43298;BME280;28892;55.640;37.532;2024-02-26T10:18:48;99678.13;;;2.23;48.33
43298;BME280;28892;55.640;37.532;2024-02-26T10:21:16;99672.09;;;2.68;47.98
43298;BME280;28892;55.640;37.532;2024-02-26T10:23:47;99682.81;;;3.32;47.14
43298;BME280;28892;55.640;37.532;2024-02-26T10:26:22;99681.84;;;3.33;45.41
43298;BME280;28892;55.640;37.532;2024-02-26T10:28:50;99679.22;;;3.00;46.38
43298;BME280;28892;55.640;37.532;2024-02-26T10:31:16;99679.56;;;3.40;46.37
43298;BME280;28892;55.640;37.532;2024-02-26T10:33:42;99666.38;;;2.40;47.12
43298;BME280;28892;55.640;37.532;2024-02-26T10:36:09;99671.16;;;2.46;48.56
43298;BME280;28892;55.640;37.532;2024-02-26T10:38:40;99659.28;;;3.09;47.60
43298;BME280;28892;55.640;37.532;2024-02-26T10:41:07;99662.50;;;3.13;47.20
43298;BME280;28892;55.640;37.532;2024-02-26T10:43:42;99661.16;;;3.84;45.57
43298;BME280;28892;55.640;37.532;2024-02-26T10:46:09;99673.00;;;3.45;45.98
43298;BME280;28892;55.640;37.532;2024-02-26T10:48:36;99668.41;;;3.26;46.03
43298;BME280;28892;55.640;37.532;2024-02-26T10:51:04;99670.34;;;3.24;46.34
43298;BME280;28892;55.640;37.532;2024-02-26T10:53:32;99653.88;;;2.55;47.12
43298;BME280;28892;55.640;37.532;2024-02-26T10:56:17;99655.78;;;2.30;47.84
43298;BME280;28892;55.640;37.532;2024-02-26T10:59:14;99660.72;;;1.99;48.79
43298;BME280;28892;55.640;37.532;2024-02-26T11:01:47;99652.09;;;2.56;47.54
43298;BME280;28892;55.640;37.532;2024-02-26T11:04:24;99645.97;;;2.89;47.97
43298;BME280;28892;55.640;37.532;2024-02-26T11:07:05;99654.09;;;2.75;47.30
43298;BME280;28892;55.640;37.532;2024-02-26T11:09:33;99636.38;;;2.56;48.01
43298;BME280;28892;55.640;37.532;2024-02-26T11:12:13;99642.19;;;2.48;47.65
43298;BME280;28892;55.640;37.532;2024-02-26T11:14:52;99639.59;;;2.36;48.00
43298;BME280;28892;55.640;37.532;2024-02-26T11:17:46;99649.84;;;3.18;46.53
43298;BME280;28892;55.640;37.532;2024-02-26T11:20:14;99631.72;;;3.26;46.00
43298;BME280;28892;55.640;37.532;2024-02-26T11:22:41;99638.75;;;3.80;46.30
43298;BME280;28892;55.640;37.532;2024-02-26T11:25:07;99634.13;;;4.14;44.98
43298;BME280;28892;55.640;37.532;2024-02-26T11:27:36;99636.53;;;4.27;45.27
43298;BME280;28892;55.640;37.532;2024-02-26T11:30:04;99626.03;;;4.06;44.50
43298;BME280;28892;55.640;37.532;2024-02-26T11:32:43;99640.44;;;4.12;45.32
43298;BME280;28892;55.640;37.532;2024-02-26T11:35:11;99644.59;;;4.36;44.83
43298;BME280;28892;55.640;37.532;2024-02-26T11:37:51;99635.56;;;4.28;44.39
43298;BME280;28892;55.640;37.532;2024-02-26T11:40:24;99629.44;;;4.49;44.71
43298;BME280;28892;55.640;37.532;2024-02-26T11:42:54;99624.72;;;4.43;44.14
43298;BME280;28892;55.640;37.532;2024-02-26T11:48:14;99621.56;;;5.20;43.31
43298;BME280;28892;55.640;37.532;2024-02-26T11:50:49;99620.38;;;4.73;43.79
43298;BME280;28892;55.640;37.532;2024-02-26T11:58:40;99630.38;;;4.79;42.35
43298;BME280;28892;55.640;37.532;2024-02-26T12:03:54;99617.41;;;5.07;43.71
43298;BME280;28892;55.640;37.532;2024-02-26T12:06:23;99609.94;;;5.12;42.28
43298;BME280;28892;55.640;37.532;2024-02-26T12:09:01;99604.56;;;5.34;42.91
43298;BME280;28892;55.640;37.532;2024-02-26T12:11:27;99613.31;;;4.32;43.66
43298;BME280;28892;55.640;37.532;2024-02-26T12:13:55;99611.56;;;3.81;44.72
43298;BME280;28892;55.640;37.532;2024-02-26T12:16:40;99607.47;;;4.50;43.73
43298;BME280;28892;55.640;37.532;2024-02-26T12:19:11;99591.75;;;3.98;43.74
43298;BME280;28892;55.640;37.532;2024-02-26T12:21:39;99610.38;;;2.75;45.63
43298;BME280;28892;55.640;37.532;2024-02-26T12:24:13;99630.72;;;3.06;45.89
43298;BME280;28892;55.640;37.532;2024-02-26T12:26:47;99623.09;;;2.91;46.21
43298;BME280;28892;55.640;37.532;2024-02-26T12:29:38;99633.38;;;2.83;47.20
43298;BME280;28892;55.640;37.532;2024-02-26T12:32:05;99630.03;;;3.25;46.36
43298;BME280;28892;55.640;37.532;2024-02-26T12:34:34;99623.38;;;3.54;45.91
43298;BME280;28892;55.640;37.532;2024-02-26T12:37:00;99603.00;;;2.81;45.44
43298;BME280;28892;55.640;37.532;2024-02-26T12:39:28;99612.38;;;1.69;48.45
43298;BME280;28892;55.640;37.532;2024-02-26T12:42:03;99611.81;;;1.88;48.32
43298;BME280;28892;55.640;37.532;2024-02-26T12:44:31;99606.06;;;1.24;50.05
43298;BME280;28892;55.640;37.532;2024-02-26T12:47:19;99618.25;;;1.84;49.50
43298;BME280;28892;55.640;37.532;2024-02-26T12:49:51;99619.13;;;2.42;47.99
43298;BME280;28892;55.640;37.532;2024-02-26T12:52:25;99611.63;;;2.60;47.12
43298;BME280;28892;55.640;37.532;2024-02-26T12:54:51;99621.03;;;2.62;47.19
43298;BME280;28892;55.640;37.532;2024-02-26T12:57:25;99620.31;;;2.72;46.98
43298;BME280;28892;55.640;37.532;2024-02-26T13:00:41;99612.41;;;1.80;48.34
43298;BME280;28892;55.640;37.532;2024-02-26T13:03:11;99610.81;;;1.66;48.81
43298;BME280;28892;55.640;37.532;2024-02-26T13:05:37;99618.78;;;1.65;48.81
43298;BME280;28892;55.640;37.532;2024-02-26T13:08:05;99604.81;;;1.17;48.41
43298;BME280;28892;55.640;37.532;2024-02-26T13:10:32;99619.09;;;1.49;48.15
43298;BME280;28892;55.640;37.532;2024-02-26T13:13:02;99611.56;;;1.08;48.95